Time;durP1;ratioP1;P1;durP2;ratioP2;P2;SDS_P1;SDS_P2;PMS_P1;PMS_P2;Temp;Humidity;BMP_temperature;BMP_pressure;BME280_temperature;BME280_humidity;BME280_pressure;Samples;Min_cycle;Max_cycle;Signal;HPM_P1;HPM_P2
2022/12/16 00:00:44;;;;;;;32.58;19.45;;;;;;;2.64;52.61;100921.84;5101609;28;20054;-66
2022/12/16 00:03:12;;;;;;;36.95;18.92;;;;;;;2.56;53.29;100908.59;5097243;28;20075;-65
2022/12/16 00:05:40;;;;;;;35.78;19.25;;;;;;;2.63;52.74;100920.19;5105695;28;20051;-65
2022/12/16 00:08:11;;;;;;;34.00;19.45;;;;;;;2.64;53.55;100921.84;5103569;28;20047;-66
2022/12/16 00:10:52;;;;;;;32.40;18.90;;;;;;;2.64;53.12;100923.66;5101049;28;20044;-66
2022/12/16 00:13:21;;;;;;;31.13;18.88;;;;;;;2.63;53.00;100917.53;5114165;28;20078;-66
2022/12/16 00:15:50;;;;;;;33.22;19.67;;;;;;;2.61;53.08;100914.22;5098615;28;20100;-66
2022/12/16 00:18:18;;;;;;;41.70;19.38;;;;;;;2.65;53.27;100923.50;5104780;28;20066;-66
2022/12/16 00:20:47;;;;;;;34.83;20.02;;;;;;;2.66;53.56;100919.03;5104251;28;20058;-65
2022/12/16 00:23:15;;;;;;;34.42;19.30;;;;;;;2.64;53.07;100919.19;5113670;28;20064;-66
2022/12/16 00:25:43;;;;;;;33.63;19.95;;;;;;;2.61;53.21;100917.69;5106213;28;20044;-66
2022/12/16 00:28:12;;;;;;;33.72;19.35;;;;;;;2.54;52.74;100897.31;5104093;28;20111;-66
2022/12/16 00:30:41;;;;;;;33.42;18.55;;;;;;;2.65;53.00;100912.06;5103939;28;20044;-66
2022/12/16 00:33:11;;;;;;;33.95;19.05;;;;;;;2.65;53.21;100906.75;5101094;28;20445;-66
2022/12/16 00:35:39;;;;;;;38.88;21.55;;;;;;;2.67;53.21;100907.41;5105312;28;20115;-66
2022/12/16 00:38:12;;;;;;;31.55;19.08;;;;;;;2.66;53.41;100903.94;5108210;28;20043;-66
2022/12/16 00:40:40;;;;;;;33.97;19.38;;;;;;;2.67;53.46;100910.06;5104534;28;20048;-66
2022/12/16 00:43:08;;;;;;;29.42;18.88;;;;;;;2.68;53.18;100911.72;5096349;28;20109;-66
2022/12/16 00:45:36;;;;;;;33.10;19.05;;;;;;;2.66;53.16;100917.19;5106136;28;20131;-66
2022/12/16 00:48:04;;;;;;;35.50;20.52;;;;;;;2.66;53.08;100906.59;5102010;28;20040;-65
2022/12/16 00:50:33;;;;;;;32.92;19.02;;;;;;;2.67;53.93;100910.06;5110834;28;20058;-66
2022/12/16 00:53:01;;;;;;;35.13;19.08;;;;;;;2.68;53.30;100919.69;5099241;28;20156;-65
2022/12/16 00:55:29;;;;;;;31.42;19.00;;;;;;;2.67;53.49;100912.72;5103948;28;20044;-65
2022/12/16 00:57:57;;;;;;;30.67;18.77;;;;;;;2.66;53.68;100909.25;5100818;28;20048;-65
2022/12/16 01:00:25;;;;;;;30.65;18.20;;;;;;;2.67;53.60;100910.91;5099509;28;20048;-66
2022/12/16 01:02:53;;;;;;;38.50;19.23;;;;;;;2.68;53.75;100917.03;5107328;28;20569;-66
2022/12/16 01:05:25;;;;;;;32.65;19.73;;;;;;;2.70;53.78;100925.66;5103474;28;20139;-66
2022/12/16 01:07:55;;;;;;;31.65;19.40;;;;;;;2.63;53.75;100912.22;5112777;28;20051;-66
2022/12/16 01:10:25;;;;;;;31.77;18.50;;;;;;;2.66;53.63;100916.38;5100201;28;20131;-66
2022/12/16 01:12:52;;;;;;;35.15;19.48;;;;;;;2.67;53.84;100931.28;5103626;28;20048;-66
2022/12/16 01:15:21;;;;;;;31.63;19.27;;;;;;;2.67;53.94;100924.16;5103279;28;20050;-66
2022/12/16 01:17:50;;;;;;;28.27;18.50;;;;;;;2.67;53.69;100928.63;5108636;28;20120;-66
2022/12/16 01:20:18;;;;;;;35.65;19.77;;;;;;;2.66;54.22;100930.47;5105942;28;20058;-65
2022/12/16 01:22:49;;;;;;;33.22;19.77;;;;;;;2.67;53.65;100940.09;5104602;28;20075;-65
2022/12/16 01:25:18;;;;;;;30.45;19.63;;;;;;;2.67;53.99;100933.94;5104349;28;20511;-65
2022/12/16 01:27:46;;;;;;;32.95;19.80;;;;;;;2.67;53.77;100942.72;5105168;28;20040;-64
2022/12/16 01:30:14;;;;;;;33.38;19.30;;;;;;;2.69;54.16;100939.91;5109580;28;20044;-67
2022/12/16 01:32:41;;;;;;;35.42;19.38;;;;;;;2.67;53.80;100937.44;5102056;28;20048;-65
2022/12/16 01:35:10;;;;;;;32.28;18.42;;;;;;;2.68;54.08;100948.88;5105737;28;20058;-65
2022/12/16 01:37:57;;;;;;;33.17;19.27;;;;;;;2.69;53.94;100959.31;5111110;28;20423;-65
2022/12/16 01:40:26;;;;;;;30.20;19.08;;;;;;;2.69;53.87;100958.47;5105824;28;20050;-66
2022/12/16 01:42:54;;;;;;;30.92;18.38;;;;;;;2.68;54.46;100962.97;5105945;28;20066;-66
2022/12/16 01:45:33;;;;;;;29.67;18.73;;;;;;;2.68;53.91;100964.78;5109998;28;20047;-66
2022/12/16 01:48:07;;;;;;;33.67;19.77;;;;;;;2.70;54.31;100970.75;5104197;28;20194;-65
2022/12/16 01:50:36;;;;;;;30.75;19.10;;;;;;;2.71;53.90;100977.72;5114852;28;20051;-66
2022/12/16 01:53:06;;;;;;;32.55;19.13;;;;;;;2.70;54.38;100970.75;5101274;28;20075;-66
2022/12/16 01:55:40;;;;;;;31.05;17.70;;;;;;;2.71;54.50;100975.91;5116047;28;20053;-66
2022/12/16 01:58:12;;;;;;;36.88;18.55;;;;;;;2.71;54.02;100972.41;5097137;28;20048;-65
2022/12/16 02:00:40;;;;;;;36.38;19.13;;;;;;;2.71;54.33;100978.56;5100974;28;20048;-65
2022/12/16 02:03:09;;;;;;;35.97;19.00;;;;;;;2.71;54.37;100980.38;5103055;28;20048;-66
2022/12/16 02:05:43;;;;;;;33.08;18.60;;;;;;;2.70;54.19;100979.53;5103090;28;20383;-65
2022/12/16 02:08:13;;;;;;;33.65;19.40;;;;;;;2.69;54.35;100991.16;5096432;28;20396;-66
2022/12/16 02:10:58;;;;;;;36.22;18.83;;;;;;;2.70;54.45;100995.47;5106221;28;20075;-66
2022/12/16 02:13:35;;;;;;;33.45;18.45;;;;;;;2.71;54.06;100993.66;5104660;28;20066;-65
2022/12/16 02:16:11;;;;;;;32.45;20.08;;;;;;;2.70;54.04;100987.50;5095757;28;20481;-66
2022/12/16 02:18:53;;;;;;;32.97;19.77;;;;;;;2.73;54.34;100991.66;5103041;28;20408;-65
2022/12/16 02:21:40;;;;;;;34.03;20.02;;;;;;;2.71;54.82;100985.69;5102839;28;20062;-65
2022/12/16 02:24:44;;;;;;;37.55;18.98;;;;;;;2.72;54.78;100990.00;5092051;28;20044;-64
2022/12/16 02:27:51;;;;;;;35.33;19.27;;;;;;;2.73;54.99;100991.66;5100155;28;20080;-65
2022/12/16 02:31:00;;;;;;;32.53;18.83;;;;;;;2.71;54.71;101007.75;5092209;28;20073;-66
2022/12/16 02:33:57;;;;;;;33.65;18.30;;;;;;;2.73;55.03;101003.09;5101108;28;20446;-65
2022/12/16 02:36:41;;;;;;;32.33;18.25;;;;;;;2.72;54.83;101006.75;5083378;28;20083;-65
2022/12/16 02:39:15;;;;;;;33.55;18.45;;;;;;;2.72;54.48;101006.75;5105918;28;20409;-65
2022/12/16 02:41:47;;;;;;;34.60;19.25;;;;;;;2.72;55.11;101008.56;5108562;28;20058;-66
2022/12/16 02:44:16;;;;;;;33.75;19.90;;;;;;;2.74;55.22;101009.22;5110126;28;20048;-66
2022/12/16 02:46:54;;;;;;;35.88;19.88;;;;;;;2.72;55.25;100997.94;5102461;28;20401;-66
2022/12/16 02:49:47;;;;;;;32.45;19.33;;;;;;;2.72;55.38;101003.25;5105225;28;20048;-66
2022/12/16 02:52:15;;;;;;;36.33;17.95;;;;;;;2.73;55.37;101008.41;5098473;28;20078;-66
2022/12/16 02:54:44;;;;;;;31.55;19.25;;;;;;;2.73;55.43;101003.09;5101679;28;20135;-66
2022/12/16 02:57:27;;;;;;;33.22;19.83;;;;;;;2.73;55.54;101011.06;5108819;28;20048;-66
2022/12/16 03:00:02;;;;;;;31.20;17.95;;;;;;;2.74;55.62;101010.06;5096312;28;20127;-66
2022/12/16 03:02:38;;;;;;;30.70;18.75;;;;;;;2.75;55.66;101005.59;5105708;28;20245;-65
2022/12/16 03:05:11;;;;;;;31.67;18.80;;;;;;;2.75;55.13;101011.72;5102948;28;20070;-66
2022/12/16 03:07:40;;;;;;;34.92;19.45;;;;;;;2.75;55.64;101008.22;5105153;28;20052;-66
2022/12/16 03:10:12;;;;;;;33.38;20.23;;;;;;;2.74;55.57;101012.72;5103978;28;20108;-66
2022/12/16 03:12:42;;;;;;;28.38;18.25;;;;;;;2.76;56.06;101012.53;5105617;28;20051;-66
2022/12/16 03:15:12;;;;;;;32.97;18.17;;;;;;;2.74;56.08;101015.38;5103974;28;20070;-65
2022/12/16 03:17:42;;;;;;;33.53;19.27;;;;;;;2.75;55.88;101010.88;5111273;28;20134;-66
2022/12/16 03:20:15;;;;;;;31.30;18.52;;;;;;;2.66;56.10;101007.41;5109367;28;20047;-65
2022/12/16 03:22:46;;;;;;;47.53;19.08;;;;;;;2.75;55.77;101024.16;5120590;28;20107;-66
2022/12/16 03:25:15;;;;;;;36.60;19.58;;;;;;;2.77;56.53;101024.81;5105479;28;20059;-65
2022/12/16 03:27:51;;;;;;;35.92;19.17;;;;;;;2.78;55.95;101023.81;5111306;28;20082;-65
2022/12/16 03:30:23;;;;;;;25.08;14.45;;;;;;;2.78;56.30;101029.13;5103611;28;20065;-66
2022/12/16 03:32:59;;;;;;;31.88;18.55;;;;;;;2.77;56.24;101030.97;5107350;28;20082;-65
2022/12/16 03:35:33;;;;;;;34.88;19.35;;;;;;;2.77;56.34;101022.16;5093981;28;20115;-66
2022/12/16 03:38:03;;;;;;;27.80;16.90;;;;;;;2.70;55.84;101013.22;5104645;28;20401;-65
2022/12/16 03:40:32;;;;;;;32.13;18.52;;;;;;;2.79;56.48;101038.75;5110605;28;20064;-64
2022/12/16 03:43:02;;;;;;;29.27;17.05;;;;;;;2.78;56.32;101043.22;5108779;28;20107;-64
2022/12/16 03:45:35;;;;;;;31.42;18.23;;;;;;;2.78;56.94;101037.91;5103420;28;20048;-65
2022/12/16 03:48:07;;;;;;;28.83;18.80;;;;;;;2.80;56.79;101040.41;5112409;28;20058;-65
2022/12/16 03:50:36;;;;;;;33.22;18.35;;;;;;;2.79;56.46;101042.22;5106142;28;20111;-67
2022/12/16 03:53:05;;;;;;;28.08;18.08;;;;;;;2.78;56.85;101039.75;5111067;28;20202;-63
2022/12/16 03:55:33;;;;;;;33.88;19.67;;;;;;;2.77;56.86;101038.09;5116511;28;20058;-65
2022/12/16 03:58:01;;;;;;;32.22;19.23;;;;;;;2.77;56.73;101036.25;5110179;28;20219;-65
2022/12/16 04:00:29;;;;;;;32.85;18.75;;;;;;;2.76;57.76;101034.59;5106076;28;20044;-65
2022/12/16 04:02:56;;;;;;;30.45;18.50;;;;;;;2.77;57.46;101043.41;5107361;28;20044;-65
2022/12/16 04:05:26;;;;;;;29.98;18.05;;;;;;;2.77;57.39;101044.22;5109392;28;20056;-65
2022/12/16 04:07:53;;;;;;;34.05;19.13;;;;;;;2.77;57.41;101046.88;5113350;28;20053;-65
2022/12/16 04:24:20;;;;;;;40.23;21.87;;;;;;;2.77;58.54;101065.47;5110516;28;20058;-66
2022/12/16 04:32:23;;;;;;;43.10;21.30;;;;;;;2.74;59.81;101079.06;5107272;28;20139;-66
2022/12/16 04:34:51;;;;;;;41.00;22.00;;;;;;;2.76;59.98;101089.50;5107999;28;20078;-65
